Time;durP1;ratioP1;P1;durP2;ratioP2;P2;SDS_P1;SDS_P2;PMS_P1;PMS_P2;Temp;Humidity;BMP_temperature;BMP_pressure;BME280_temperature;BME280_humidity;BME280_pressure;Samples;Min_cycle;Max_cycle;Signal;HPM_P1;HPM_P2
2022/03/26 00:00:16;;;;;;;40.75;25.42;;;;;;;5.16;58.16;102193.00;4977551;28;20026;-88
2022/03/26 00:02:43;;;;;;;38.35;25.92;;;;;;;5.11;57.87;102195.41;4980039;28;20080;-88
2022/03/26 00:05:09;;;;;;;35.63;23.70;;;;;;;5.06;58.20;102194.38;4980180;28;20019;-88
2022/03/26 00:07:34;;;;;;;41.75;26.50;;;;;;;5.03;57.55;102190.75;4984263;28;20033;-88
2022/03/26 00:10:00;;;;;;;39.35;26.05;;;;;;;4.99;58.15;102198.47;4981365;28;20080;-88
2022/03/26 00:12:25;;;;;;;40.03;24.67;;;;;;;4.95;57.90;102193.97;4983255;28;20049;-88
2022/03/26 00:14:51;;;;;;;41.92;24.45;;;;;;;4.89;58.07;102193.72;4996368;28;20030;-88
2022/03/26 00:17:16;;;;;;;47.38;25.50;;;;;;;4.84;58.05;102192.66;5015390;28;20019;-88
2022/03/26 00:19:42;;;;;;;39.30;25.02;;;;;;;4.83;58.58;102193.47;4980287;28;20101;-88
2022/03/26 00:22:07;;;;;;;38.05;23.50;;;;;;;4.78;58.20;102195.03;4979442;28;20392;-88
2022/03/26 00:24:32;;;;;;;37.38;25.13;;;;;;;4.75;58.34;102190.56;4983769;28;20026;-88
2022/03/26 00:26:58;;;;;;;40.25;25.55;;;;;;;4.73;58.61;102195.72;4997497;28;20026;-88
2022/03/26 00:29:24;;;;;;;43.20;25.50;;;;;;;4.69;59.03;102204.28;4980985;28;20029;-88
2022/03/26 00:31:49;;;;;;;39.00;25.85;;;;;;;4.66;58.47;102192.78;4979516;28;20042;-88
2022/03/26 00:34:15;;;;;;;37.00;24.45;;;;;;;4.60;58.98;102206.50;4983537;28;20396;-88
2022/03/26 00:36:40;;;;;;;37.70;24.58;;;;;;;4.57;59.10;102201.19;4982915;28;20022;-88
2022/03/26 00:39:06;;;;;;;42.03;24.70;;;;;;;4.54;58.68;102207.19;4978512;28;20027;-88
2022/03/26 00:41:32;;;;;;;37.95;24.05;;;;;;;4.51;58.75;102203.53;4982287;28;20065;-87
2022/03/26 00:43:58;;;;;;;36.70;23.98;;;;;;;4.48;58.52;102200.00;4994515;28;20045;-87
2022/03/26 00:46:23;;;;;;;42.25;24.38;;;;;;;4.41;59.00;102200.56;4978805;28;20029;-88
2022/03/26 00:48:49;;;;;;;39.50;23.80;;;;;;;4.41;59.02;102205.78;4995634;28;20029;-88
2022/03/26 00:51:15;;;;;;;39.45;24.48;;;;;;;4.39;59.04;102202.22;4979055;28;20041;-88
2022/03/26 00:53:44;;;;;;;36.17;24.67;;;;;;;4.35;59.09;102205.53;4976806;28;20018;-88
2022/03/26 00:56:10;;;;;;;40.97;25.30;;;;;;;4.32;58.83;102208.00;4998089;28;20384;-88
2022/03/26 00:58:36;;;;;;;34.63;23.80;;;;;;;4.29;58.88;102202.66;4978711;28;20105;-88
2022/03/26 01:01:01;;;;;;;36.55;24.17;;;;;;;4.27;59.21;102205.19;4984811;28;20034;-89
2022/03/26 01:03:27;;;;;;;33.67;23.38;;;;;;;4.23;59.03;102206.78;5000351;28;20033;-87
2022/03/26 01:05:52;;;;;;;42.15;26.05;;;;;;;4.21;58.76;102208.44;4983414;28;20022;-88
2022/03/26 01:08:18;;;;;;;38.60;23.55;;;;;;;4.18;59.06;102199.59;4982762;28;20026;-88
2022/03/26 01:10:44;;;;;;;37.92;24.25;;;;;;;4.15;59.28;102197.75;4980064;28;20722;-87
2022/03/26 01:13:11;;;;;;;37.92;25.33;;;;;;;4.13;59.51;102198.53;4983578;28;20029;-88
2022/03/26 01:15:37;;;;;;;43.75;26.35;;;;;;;4.09;59.65;102187.03;4999540;28;20117;-87
2022/03/26 01:18:02;;;;;;;38.63;24.58;;;;;;;4.05;59.12;102195.56;4981466;28;20046;-88
2022/03/26 01:20:28;;;;;;;42.17;25.20;;;;;;;4.01;59.72;102191.06;4997311;28;20137;-88
2022/03/26 01:22:54;;;;;;;40.22;25.00;;;;;;;3.97;59.64;102187.44;4979312;28;20049;-88
2022/03/26 01:25:20;;;;;;;37.92;24.23;;;;;;;3.97;59.17;102190.03;4998241;28;20022;-87
2022/03/26 01:27:45;;;;;;;35.67;22.92;;;;;;;3.93;59.71;102190.72;4978708;28;20022;-88
2022/03/26 01:30:11;;;;;;;39.20;25.83;;;;;;;3.91;59.71;102188.06;4996942;28;20034;-89
2022/03/26 01:32:40;;;;;;;39.38;24.25;;;;;;;3.88;59.74;102187.00;4998439;28;20109;-88
2022/03/26 01:35:06;;;;;;;40.90;24.48;;;;;;;3.86;59.67;102186.94;4996094;28;20084;-88
2022/03/26 01:37:32;;;;;;;38.78;23.98;;;;;;;3.84;59.50;102191.22;4997233;28;20109;-88
2022/03/26 01:39:57;;;;;;;37.22;24.73;;;;;;;3.82;59.84;102185.03;4999647;28;20054;-88
2022/03/26 01:42:23;;;;;;;35.15;23.85;;;;;;;3.78;59.98;102175.28;4999082;28;20026;-89
2022/03/26 01:44:49;;;;;;;35.25;23.40;;;;;;;3.72;59.81;102176.81;4996263;28;20027;-89
2022/03/26 01:47:15;;;;;;;42.65;24.25;;;;;;;3.74;59.92;102181.19;4983572;28;20452;-89
2022/03/26 01:49:40;;;;;;;39.67;24.13;;;;;;;3.70;59.95;102188.88;4980546;28;20038;-89
2022/03/26 01:52:10;;;;;;;39.35;24.33;;;;;;;3.66;59.86;102186.06;4980692;28;20034;-88
2022/03/26 01:54:37;;;;;;;38.95;23.80;;;;;;;3.65;59.74;102182.59;4997426;28;20464;-88
2022/03/26 01:57:03;;;;;;;37.35;22.50;;;;;;;3.63;59.79;102178.13;4981013;28;20477;-88
2022/03/26 01:59:29;;;;;;;37.78;23.30;;;;;;;3.59;59.82;102175.38;4976806;28;20117;-88
2022/03/26 02:01:57;;;;;;;36.92;23.30;;;;;;;3.57;59.47;102178.75;4974538;28;20070;-88
2022/03/26 02:04:26;;;;;;;35.83;23.98;;;;;;;3.53;59.66;102171.63;4987927;28;20022;-88
2022/03/26 02:06:53;;;;;;;40.90;24.98;;;;;;;3.50;59.64;102168.88;4990070;28;20054;-88
2022/03/26 02:09:21;;;;;;;34.85;22.80;;;;;;;3.48;59.70;102166.19;4986653;28;20046;-87
2022/03/26 02:11:49;;;;;;;32.65;22.45;;;;;;;3.46;59.73;102166.13;4991691;28;20080;-88
2022/03/26 02:14:19;;;;;;;35.65;22.63;;;;;;;3.42;59.86;102171.13;4989095;28;20026;-87
2022/03/26 02:16:45;;;;;;;37.25;24.10;;;;;;;3.38;60.41;102166.59;4975954;28;20101;-89
2022/03/26 02:19:11;;;;;;;37.20;25.00;;;;;;;3.33;60.26;102166.38;4975357;28;20062;-89
2022/03/26 02:21:37;;;;;;;40.80;23.52;;;;;;;3.37;60.04;102177.88;4975136;28;20022;-88
2022/03/26 02:24:03;;;;;;;41.97;23.02;;;;;;;3.35;60.11;102175.19;4977524;28;20033;-88
2022/03/26 02:26:29;;;;;;;36.63;23.45;;;;;;;3.29;59.96;102177.50;4976529;28;20504;-88
2022/03/26 02:29:10;;;;;;;37.42;23.98;;;;;;;3.29;60.18;102170.59;4976758;28;20022;-88
2022/03/26 02:31:37;;;;;;;34.80;23.05;;;;;;;3.27;60.06;102171.34;4993402;28;20044;-88
2022/03/26 02:34:04;;;;;;;36.00;22.67;;;;;;;3.26;60.17;102169.53;4976612;28;20037;-88
2022/03/26 02:36:29;;;;;;;37.97;23.92;;;;;;;3.25;60.06;102167.75;4990472;28;20022;-88
2022/03/26 02:38:54;;;;;;;41.53;24.33;;;;;;;3.23;59.96;102169.41;4976683;28;20552;-88
2022/03/26 02:41:20;;;;;;;37.42;23.27;;;;;;;3.20;60.11;102159.72;4992686;28;20052;-88
2022/03/26 02:43:45;;;;;;;39.22;23.85;;;;;;;3.15;60.32;102162.13;4976617;28;20037;-88
2022/03/26 02:46:10;;;;;;;37.78;23.85;;;;;;;3.14;60.11;102173.38;4974885;28;20029;-87
2022/03/26 02:48:39;;;;;;;36.00;23.67;;;;;;;3.11;59.99;102175.84;4993267;28;20030;-87
2022/03/26 02:51:05;;;;;;;39.33;24.33;;;;;;;3.10;60.20;102167.97;4976001;28;20026;-87
2022/03/26 02:53:30;;;;;;;39.20;23.85;;;;;;;3.10;60.22;102174.06;4978162;28;20033;-87
2022/03/26 02:55:55;;;;;;;39.00;23.95;;;;;;;3.10;60.49;102178.41;4992336;28;20129;-87
2022/03/26 02:58:20;;;;;;;39.50;24.90;;;;;;;3.06;60.25;102173.03;4993112;28;20026;-87
2022/03/26 03:00:46;;;;;;;38.63;24.38;;;;;;;3.03;60.06;102166.81;4992742;28;20030;-87
2022/03/26 03:03:12;;;;;;;34.78;22.65;;;;;;;3.02;60.86;102165.00;4974481;28;20026;-87
2022/03/26 03:05:37;;;;;;;42.17;23.92;;;;;;;3.02;60.20;102165.00;4976956;28;20116;-87
2022/03/26 03:08:02;;;;;;;41.22;24.60;;;;;;;3.00;60.46;102164.91;4974067;28;20061;-87
2022/03/26 03:10:28;;;;;;;39.97;23.40;;;;;;;2.98;60.52;102170.88;4975953;28;20125;-87
2022/03/26 03:12:54;;;;;;;39.33;23.33;;;;;;;2.94;60.34;102157.69;4991403;28;20431;-88
2022/03/26 03:15:20;;;;;;;36.55;23.35;;;;;;;2.93;60.73;102168.97;4976895;28;20030;-88
2022/03/26 03:17:48;;;;;;;35.20;22.90;;;;;;;2.92;60.45;102164.56;4993023;28;20109;-88
2022/03/26 03:20:15;;;;;;;39.10;24.58;;;;;;;2.89;60.51;102164.44;4980201;28;20033;-88
2022/03/26 03:22:41;;;;;;;36.95;22.60;;;;;;;2.89;60.66;102172.25;4974115;28;20117;-88
2022/03/26 03:25:08;;;;;;;34.10;22.67;;;;;;;2.88;60.48;102167.88;4991237;28;20031;-87
2022/03/26 03:27:33;;;;;;;34.28;23.35;;;;;;;2.84;60.65;102163.34;4992428;28;20037;-88
2022/03/26 03:29:58;;;;;;;39.60;23.02;;;;;;;2.82;60.53;102173.69;4977577;28;20018;-87
2022/03/26 03:32:24;;;;;;;36.78;22.65;;;;;;;2.81;60.67;102164.06;4973294;28;20026;-88
2022/03/26 03:34:53;;;;;;;39.47;23.52;;;;;;;2.77;60.52;102171.69;4978134;28;20025;-87
2022/03/26 03:37:18;;;;;;;36.90;23.50;;;;;;;2.78;60.64;102171.75;4989332;28;20023;-88
2022/03/26 03:39:44;;;;;;;37.85;23.45;;;;;;;2.76;60.56;102168.16;4975355;28;20105;-87
2022/03/26 03:42:09;;;;;;;36.42;24.25;;;;;;;2.68;60.47;102153.88;4992886;28;20026;-87
2022/03/26 03:44:35;;;;;;;39.03;23.38;;;;;;;2.72;60.58;102162.72;4990477;28;20034;-88
2022/03/26 03:47:01;;;;;;;36.30;22.25;;;;;;;2.72;60.56;102161.03;4996711;28;20030;-87
2022/03/26 03:49:31;;;;;;;41.85;23.58;;;;;;;2.68;60.39;102149.59;4993821;28;20030;-88
2022/03/26 03:52:00;;;;;;;37.25;22.73;;;;;;;2.67;60.73;102149.50;5008772;28;20053;-87
2022/03/26 03:54:26;;;;;;;43.35;24.42;;;;;;;2.66;60.46;102151.22;4979023;28;20296;-87
2022/03/26 03:56:51;;;;;;;38.58;23.38;;;;;;;2.62;60.47;102143.16;4995254;28;20051;-87
2022/03/26 03:59:17;;;;;;;39.20;24.10;;;;;;;2.64;60.84;102163.25;4997238;28;20022;-87
2022/03/26 04:01:42;;;;;;;37.15;23.35;;;;;;;2.63;60.66;102155.41;4981387;28;20118;-87
2022/03/26 04:04:08;;;;;;;35.78;23.42;;;;;;;2.61;60.60;102160.53;4981714;28;20034;-88
2022/03/26 04:06:33;;;;;;;35.47;22.48;;;;;;;2.60;60.73;102161.31;4980195;28;20033;-88
2022/03/26 04:08:58;;;;;;;36.35;23.05;;;;;;;2.58;60.50;102159.47;4980273;28;20029;-88
2022/03/26 04:11:24;;;;;;;41.65;22.50;;;;;;;2.58;60.66;102159.47;4996583;28;20073;-88
2022/03/26 04:13:53;;;;;;;36.92;22.65;;;;;;;2.55;60.57;102157.63;4979056;28;20030;-88
2022/03/26 04:16:19;;;;;;;36.55;21.80;;;;;;;2.53;60.35;102164.44;4981387;28;20643;-88
2022/03/26 04:18:44;;;;;;;38.10;23.17;;;;;;;2.52;60.67;102158.38;5013077;28;20045;-88
2022/03/26 04:21:09;;;;;;;36.83;23.83;;;;;;;2.51;60.58;102164.41;4978716;28;20042;-87
2022/03/26 04:23:35;;;;;;;36.58;22.52;;;;;;;2.49;60.48;102162.53;4980407;28;20037;-87
2022/03/26 04:26:00;;;;;;;34.08;22.23;;;;;;;2.47;60.60;102159.84;4980717;28;20035;-87
2022/03/26 04:28:26;;;;;;;38.92;24.15;;;;;;;2.44;60.32;102160.59;4995720;28;20026;-87
2022/03/26 04:30:51;;;;;;;42.38;24.58;;;;;;;2.45;60.40;102171.91;4993273;28;20451;-87
2022/03/26 04:33:17;;;;;;;36.72;21.45;;;;;;;2.44;60.38;102163.19;4973000;28;20114;-87
2022/03/26 04:35:42;;;;;;;37.90;22.65;;;;;;;2.44;60.52;102165.78;5001196;28;20506;-87
2022/03/26 04:38:11;;;;;;;34.88;21.92;;;;;;;2.40;60.48;102168.19;4995295;28;20030;-88
2022/03/26 04:40:37;;;;;;;36.30;22.17;;;;;;;2.40;60.68;102173.41;4977938;28;20031;-88
2022/03/26 04:43:02;;;;;;;35.92;22.33;;;;;;;2.37;60.60;102158.50;4991521;28;20447;-88
2022/03/26 04:45:30;;;;;;;41.60;24.20;;;;;;;2.37;60.28;102160.22;4993927;28;20026;-88
2022/03/26 04:47:55;;;;;;;38.17;22.50;;;;;;;2.37;60.35;102168.91;4995459;28;20031;-88
2022/03/26 04:50:20;;;;;;;34.05;21.70;;;;;;;2.34;60.40;102165.28;4992982;28;20025;-89
2022/03/26 04:52:47;;;;;;;35.92;22.02;;;;;;;2.34;60.41;102173.09;4995559;28;20034;-88
2022/03/26 04:55:13;;;;;;;36.13;21.70;;;;;;;2.31;60.31;102166.03;4995306;28;20477;-87
2022/03/26 04:57:43;;;;;;;40.50;21.40;;;;;;;2.29;60.74;102171.16;4983614;28;20026;-88
2022/03/26 05:00:11;;;;;;;36.03;21.88;;;;;;;2.27;60.41;102170.19;4982524;28;20033;-91
2022/03/26 05:02:38;;;;;;;41.25;23.50;;;;;;;2.18;60.38;102162.84;4998574;28;20085;-91
2022/03/26 05:05:07;;;;;;;37.47;22.25;;;;;;;2.13;60.58;102156.47;4998898;28;20033;-89
2022/03/26 05:07:45;;;;;;;39.72;22.50;;;;;;;2.18;61.03;102177.53;4966803;28;20066;-90
2022/03/26 05:10:18;;;;;;;37.17;21.83;;;;;;;2.23;60.33;102183.88;4984280;28;20022;-92
2022/03/26 05:12:45;;;;;;;38.25;22.30;;;;;;;2.21;60.80;102187.22;4982250;28;20026;-90
2022/03/26 05:15:11;;;;;;;36.15;23.15;;;;;;;2.19;60.58;102184.53;4998288;28;20034;-91
2022/03/26 05:17:37;;;;;;;35.00;21.55;;;;;;;2.16;60.61;102185.28;4997849;28;20018;-87
2022/03/26 05:20:04;;;;;;;38.17;21.80;;;;;;;2.17;60.36;102188.78;4982235;28;20053;-91
2022/03/26 05:22:29;;;;;;;35.63;22.33;;;;;;;2.14;60.95;102186.03;4981614;28;20031;-90
2022/03/26 05:24:55;;;;;;;37.55;21.33;;;;;;;2.09;60.73;102184.88;4997664;28;20511;-91
2022/03/26 05:27:21;;;;;;;32.38;21.00;;;;;;;2.12;60.83;102183.34;4980976;28;20073;-90
2022/03/26 05:29:46;;;;;;;38.80;22.55;;;;;;;2.09;60.94;102188.38;4997182;28;20396;-90
2022/03/26 05:32:12;;;;;;;31.52;20.60;;;;;;;2.04;60.49;102176.88;4980946;28;20477;-91
2022/03/26 05:34:37;;;;;;;32.53;20.27;;;;;;;2.08;60.91;102186.59;4981440;28;20032;-91
2022/03/26 05:37:04;;;;;;;33.25;21.90;;;;;;;2.08;60.82;102185.69;4997058;28;20020;-91
2022/03/26 05:39:30;;;;;;;38.90;22.55;;;;;;;2.06;60.82;102183.03;4997473;28;20085;-90
2022/03/26 05:41:56;;;;;;;36.33;21.58;;;;;;;2.04;60.88;102189.88;4997359;28;20377;-91
2022/03/26 05:44:21;;;;;;;38.20;21.60;;;;;;;2.00;60.54;102186.22;4981849;28;20061;-91
2022/03/26 05:46:47;;;;;;;35.65;21.88;;;;;;;2.03;60.85;102198.47;4981211;28;20178;-91
2022/03/26 05:49:14;;;;;;;32.00;20.55;;;;;;;2.02;60.41;102197.59;4997274;28;20086;-91
2022/03/26 05:51:43;;;;;;;34.28;21.40;;;;;;;2.00;60.65;102194.00;4982157;28;20029;-91
2022/03/26 05:54:09;;;;;;;42.97;22.45;;;;;;;2.01;60.61;102184.50;4981459;28;20035;-88
2022/03/26 05:56:39;;;;;;;36.90;21.27;;;;;;;2.02;60.67;102186.28;4981595;28;20026;-89
2022/03/26 05:59:11;;;;;;;36.78;21.85;;;;;;;2.01;60.65;102190.63;4998517;28;20611;-92
2022/03/26 06:01:37;;;;;;;35.30;20.63;;;;;;;2.01;60.88;102182.81;4980998;28;20141;-90
2022/03/26 06:04:04;;;;;;;37.70;21.13;;;;;;;2.01;60.73;102195.81;4997134;28;20026;-91
2022/03/26 06:06:29;;;;;;;37.42;21.67;;;;;;;2.01;60.47;102189.72;4980789;28;20023;-88
2022/03/26 06:08:55;;;;;;;33.30;21.27;;;;;;;2.02;60.58;102196.69;4997670;28;20050;-92
2022/03/26 06:11:21;;;;;;;38.95;23.00;;;;;;;2.02;60.92;102208.00;4997821;28;20034;-91
2022/03/26 06:13:49;;;;;;;35.25;22.17;;;;;;;2.01;60.56;102200.13;4982125;28;20030;-92
2022/03/26 06:16:14;;;;;;;33.83;21.00;;;;;;;2.03;60.41;102204.59;4981689;28;20110;-92
2022/03/26 06:18:40;;;;;;;36.75;21.10;;;;;;;2.04;60.29;102208.09;4998945;28;20061;-89
2022/03/26 06:21:05;;;;;;;30.58;18.88;;;;;;;2.06;60.31;102216.84;4998829;28;20153;-92
2022/03/26 06:23:34;;;;;;;35.95;20.98;;;;;;;2.06;60.37;102211.66;4998643;28;20113;-90
2022/03/26 06:26:00;;;;;;;32.95;20.52;;;;;;;2.09;59.98;102229.13;4983115;28;20093;-91
2022/03/26 06:28:26;;;;;;;32.67;20.67;;;;;;;2.12;60.03;102229.28;4982240;28;20053;-91
2022/03/26 06:30:52;;;;;;;34.67;21.40;;;;;;;2.15;60.38;102224.25;4997981;28;20034;-90
2022/03/26 06:33:18;;;;;;;37.53;20.85;;;;;;;2.17;59.99;102223.50;4997375;28;20049;-91
2022/03/26 06:35:46;;;;;;;33.22;19.65;;;;;;;2.22;59.95;102222.84;4996857;28;20049;-90
2022/03/26 06:38:11;;;;;;;38.28;22.35;;;;;;;2.28;60.25;102234.47;4980567;28;20153;-90
2022/03/26 06:40:38;;;;;;;36.13;20.60;;;;;;;2.33;60.35;102239.03;4995819;28;20034;-89
2022/03/26 06:43:05;;;;;;;38.58;22.02;;;;;;;2.36;60.13;102233.94;4978752;28;20022;-90
2022/03/26 06:45:37;;;;;;;35.22;21.58;;;;;;;2.40;60.09;102242.00;4979562;28;20026;-91
2022/03/26 06:48:03;;;;;;;36.08;22.23;;;;;;;2.43;60.66;102243.84;4995140;28;20030;-89
2022/03/26 06:50:31;;;;;;;41.35;22.50;;;;;;;2.51;60.51;102246.84;4993309;28;20038;-89
2022/03/26 06:52:58;;;;;;;38.45;22.65;;;;;;;2.53;60.64;102248.72;4980597;28;20042;-89
2022/03/26 06:55:23;;;;;;;36.58;21.33;;;;;;;2.59;61.13;102237.69;4981569;28;20038;-89
2022/03/26 06:57:49;;;;;;;36.15;21.08;;;;;;;2.68;60.87;102239.88;4961913;28;20040;-90
2022/03/26 07:00:16;;;;;;;36.95;21.35;;;;;;;2.77;61.02;102242.03;4974491;28;20081;-90
2022/03/26 07:02:42;;;;;;;41.95;24.35;;;;;;;2.82;61.25;102243.13;4971993;28;20081;-90
2022/03/26 07:05:08;;;;;;;40.95;23.33;;;;;;;2.90;61.72;102233.97;4973295;28;20573;-90
2022/03/26 07:07:36;;;;;;;41.75;23.63;;;;;;;2.95;61.41;102242.94;4963864;28;20051;-90
2022/03/26 07:10:03;;;;;;;39.42;24.10;;;;;;;3.02;61.70;102241.50;4994307;28;20050;-89
2022/03/26 07:12:28;;;;;;;39.15;23.30;;;;;;;3.08;61.33;102239.16;4977940;28;20014;-89
2022/03/26 07:14:54;;;;;;;38.03;23.23;;;;;;;3.17;61.41;102243.03;4994206;28;20033;-90
2022/03/26 07:17:19;;;;;;;40.05;23.17;;;;;;;3.24;61.34;102247.72;4984455;28;20110;-89
2022/03/26 07:19:44;;;;;;;42.40;23.35;;;;;;;3.30;61.71;102245.38;4973531;28;20068;-89
2022/03/26 07:22:10;;;;;;;43.33;25.02;;;;;;;3.40;61.63;102245.81;4991535;28;20139;-89
2022/03/26 07:24:35;;;;;;;38.00;23.40;;;;;;;3.52;61.94;102246.38;4970799;28;20018;-90
2022/03/26 07:27:00;;;;;;;41.70;27.00;;;;;;;3.62;61.91;102247.69;4968977;28;20027;-90
2022/03/26 07:29:26;;;;;;;41.60;24.45;;;;;;;3.74;62.38;102247.34;4971582;28;20057;-90
2022/03/26 07:31:51;;;;;;;40.80;24.38;;;;;;;3.82;61.62;102240.75;4973892;28;20089;-89
2022/03/26 07:34:17;;;;;;;44.50;24.85;;;;;;;3.93;61.77;102238.59;4991434;28;20476;-89
2022/03/26 07:36:43;;;;;;;40.42;25.20;;;;;;;4.07;62.12;102230.50;4992033;28;20030;-89
2022/03/26 07:39:08;;;;;;;41.72;23.77;;;;;;;4.16;61.95;102230.88;4992082;28;20107;-90
2022/03/26 07:41:33;;;;;;;43.45;24.83;;;;;;;4.28;61.50;102240.06;4974304;28;20102;-90
2022/03/26 07:43:59;;;;;;;39.90;23.85;;;;;;;4.37;60.92;102237.84;4975964;28;20037;-90
2022/03/26 07:46:24;;;;;;;42.03;24.58;;;;;;;4.49;61.47;102235.72;4973013;28;20584;-90
2022/03/26 07:48:49;;;;;;;43.85;26.33;;;;;;;4.60;61.38;102240.47;4993066;28;20030;-89
2022/03/26 07:51:15;;;;;;;43.15;24.88;;;;;;;4.75;61.14;102245.47;4976712;28;20477;-88
2022/03/26 07:53:40;;;;;;;45.50;25.42;;;;;;;4.87;61.10;102250.31;4978889;28;20081;-89
2022/03/26 07:56:05;;;;;;;39.90;24.02;;;;;;;4.99;60.63;102248.16;4996062;28;20018;-89
2022/03/26 07:58:31;;;;;;;41.20;25.98;;;;;;;5.16;60.90;102255.78;4982097;28;20022;-90
2022/03/26 08:00:56;;;;;;;43.53;26.50;;;;;;;5.28;62.11;102255.38;4995853;28;20042;-90
2022/03/26 08:03:27;;;;;;;41.85;25.08;;;;;;;5.44;60.96;102262.06;4997579;28;20038;-90
2022/03/26 08:05:52;;;;;;;45.60;25.67;;;;;;;5.58;61.83;102256.47;4995725;28;20493;-90
2022/03/26 08:08:17;;;;;;;48.10;28.10;;;;;;;5.74;62.43;102255.31;4978349;28;20030;-89
2022/03/26 08:10:45;;;;;;;51.40;26.90;;;;;;;5.86;62.45;102241.75;4975492;28;20026;-89
2022/03/26 08:13:10;;;;;;;47.78;27.73;;;;;;;6.01;62.52;102244.03;4990770;28;20033;-89
2022/03/26 08:15:36;;;;;;;46.38;26.60;;;;;;;6.19;62.60;102235.94;4992959;28;20031;-91
2022/03/26 08:18:03;;;;;;;48.90;27.33;;;;;;;6.35;63.40;102239.09;4994596;28;20038;-89
2022/03/26 08:20:32;;;;;;;47.72;27.50;;;;;;;6.53;63.00;102247.56;4979636;28;20023;-90
2022/03/26 08:22:58;;;;;;;46.33;27.73;;;;;;;6.68;62.49;102241.91;4979731;28;20481;-90
2022/03/26 08:28:09;;;;;;;47.10;26.15;;;;;;;7.02;62.62;102243.84;4998745;28;20184;-90
2022/03/26 08:30:35;;;;;;;39.67;23.42;;;;;;;9.51;65.67;102236.19;4981384;28;20027;-92
2022/03/26 08:33:04;;;;;;;42.45;23.48;;;;;;;10.61;63.75;102239.06;4997730;28;20099;-90
2022/03/26 08:35:33;;;;;;;41.22;22.40;;;;;;;10.86;61.83;102232.38;4997986;28;20027;-91
2022/03/26 08:38:03;;;;;;;40.45;23.02;;;;;;;9.78;60.74;102228.78;4984384;28;20026;-89
2022/03/26 08:40:29;;;;;;;41.47;20.30;;;;;;;9.32;61.09;102211.19;4984922;28;20022;-89
2022/03/26 08:42:58;;;;;;;35.25;20.02;;;;;;;9.24;60.89;102237.38;4985049;28;20041;-90
2022/03/26 08:45:25;;;;;;;34.65;19.95;;;;;;;9.23;61.27;102233.84;4987579;28;20049;-89
2022/03/26 08:47:50;;;;;;;33.22;18.75;;;;;;;9.32;61.45;102238.41;4977772;28;20401;-88
2022/03/26 08:50:16;;;;;;;33.92;19.30;;;;;;;9.38;61.96;102237.66;4966441;28;20050;-89
2022/03/26 08:52:41;;;;;;;35.63;20.13;;;;;;;9.43;62.12;102224.56;4975431;28;20054;-87
2022/03/26 08:55:08;;;;;;;33.60;20.55;;;;;;;9.54;62.27;102230.94;4975103;28;20055;-88
2022/03/26 08:57:33;;;;;;;34.17;19.48;;;;;;;9.62;61.40;102225.84;4996372;28;20042;-88
2022/03/26 08:59:59;;;;;;;33.63;19.65;;;;;;;9.74;61.02;102227.84;4979359;28;20028;-88
2022/03/26 09:02:24;;;;;;;32.03;18.45;;;;;;;9.87;61.22;102227.19;4979032;28;20030;-88
2022/03/26 09:04:49;;;;;;;33.08;20.42;;;;;;;9.97;61.02;102228.25;4982275;28;20049;-88
2022/03/26 09:07:15;;;;;;;30.77;19.42;;;;;;;10.06;61.94;102222.28;4994816;28;20022;-88
2022/03/26 09:09:40;;;;;;;32.05;18.65;;;;;;;10.25;61.22;102228.78;4991195;28;20031;-88
2022/03/26 09:12:06;;;;;;;32.28;18.50;;;;;;;10.36;60.63;102220.13;4990705;28;20090;-88
2022/03/26 09:14:31;;;;;;;34.35;18.85;;;;;;;10.49;60.51;102215.97;4978182;28;20022;-88
2022/03/26 09:16:57;;;;;;;29.45;17.48;;;;;;;10.57;60.77;102211.72;4993249;28;20022;-88
2022/03/26 09:19:22;;;;;;;24.30;15.73;;;;;;;10.71;60.21;102211.06;5008919;28;20034;-89
2022/03/26 09:21:49;;;;;;;25.83;17.52;;;;;;;10.78;60.02;102212.91;4999365;28;20030;-90
2022/03/26 09:24:15;;;;;;;26.50;15.75;;;;;;;10.98;59.46;102207.94;4981982;28;20403;-89
2022/03/26 09:26:41;;;;;;;31.48;16.20;;;;;;;11.11;59.66;102210.72;4997134;28;20033;-87
2022/03/26 09:29:06;;;;;;;25.30;14.73;;;;;;;11.21;59.35;102206.47;4982537;28;20033;-89
2022/03/26 09:31:31;;;;;;;24.92;15.07;;;;;;;11.37;60.27;102207.53;5006962;28;20159;-89
2022/03/26 09:33:57;;;;;;;23.90;14.73;;;;;;;11.46;59.96;102201.47;4996995;28;20018;-89
2022/03/26 09:36:22;;;;;;;27.73;14.63;;;;;;;11.60;59.33;102205.16;4982727;28;20468;-90
2022/03/26 09:38:48;;;;;;;21.23;15.90;;;;;;;11.70;59.05;102205.28;4999781;28;20030;-89
2022/03/26 09:41:14;;;;;;;21.77;13.93;;;;;;;11.78;58.93;102207.09;4997877;28;20018;-88
2022/03/26 09:43:39;;;;;;;19.17;13.88;;;;;;;11.91;58.76;102197.53;4984341;28;20168;-88
2022/03/26 09:46:05;;;;;;;27.50;14.38;;;;;;;12.04;58.77;102195.03;4995125;28;20031;-88
2022/03/26 09:48:31;;;;;;;20.40;13.95;;;;;;;12.16;58.16;102195.16;4996398;28;20018;-89
2022/03/26 09:50:56;;;;;;;22.00;13.98;;;;;;;12.35;57.97;102194.44;4980821;28;20022;-89
2022/03/26 09:53:22;;;;;;;19.27;14.27;;;;;;;12.45;57.95;102189.22;5000078;28;20077;-89
2022/03/26 09:55:47;;;;;;;28.83;14.98;;;;;;;12.56;57.66;102191.06;4997028;28;20056;-89
2022/03/26 09:58:12;;;;;;;22.52;14.80;;;;;;;12.68;57.10;102188.47;4977568;28;20026;-89
2022/03/26 10:00:38;;;;;;;20.88;14.82;;;;;;;12.79;57.49;102190.31;4979508;28;20026;-89
2022/03/26 10:03:04;;;;;;;21.40;13.88;;;;;;;12.89;57.40;102184.22;4977604;28;20014;-88
2022/03/26 10:05:34;;;;;;;21.73;14.77;;;;;;;12.99;57.24;102185.16;4983231;28;20026;-88
2022/03/26 10:08:16;;;;;;;29.98;15.13;;;;;;;13.08;57.00;102181.66;4975947;28;20035;-88
2022/03/26 10:10:45;;;;;;;18.40;14.52;;;;;;;13.18;56.74;102178.16;4994397;28;20010;-89
2022/03/26 10:13:11;;;;;;;22.35;14.75;;;;;;;13.33;56.81;102176.44;4991052;28;20142;-88
2022/03/26 10:15:36;;;;;;;18.30;14.18;;;;;;;13.45;56.46;102179.16;4980451;28;20022;-88
2022/03/26 10:18:09;;;;;;;20.13;14.60;;;;;;;13.60;56.06;102167.72;4998487;28;20034;-88
2022/03/26 10:20:34;;;;;;;23.88;15.85;;;;;;;13.65;56.13;102159.78;4995583;28;20030;-88
2022/03/26 10:22:59;;;;;;;21.25;14.38;;;;;;;13.84;55.53;102159.81;4979527;28;20114;-88
2022/03/26 10:25:25;;;;;;;20.05;13.85;;;;;;;13.87;55.65;102165.09;4996102;28;20026;-89
2022/03/26 10:27:54;;;;;;;19.45;13.90;;;;;;;14.00;55.55;102162.47;4995536;28;20057;-88
2022/03/26 10:32:38;;;;;;;17.15;12.70;;;;;;;14.08;55.46;102150.97;4978364;28;20029;-88
2022/03/26 10:33:20;;;;;;;21.02;13.60;;;;;;;14.20;55.50;102152.75;4992703;28;20045;-89
2022/03/26 10:36:02;;;;;;;23.80;13.57;;;;;;;14.32;55.19;102153.63;4979261;28;20089;-88
2022/03/26 10:38:33;;;;;;;23.48;12.45;;;;;;;14.39;54.97;102166.00;4978483;28;20034;-88
2022/03/26 10:41:00;;;;;;;17.98;12.40;;;;;;;14.52;54.26;102161.56;5008120;28;20019;-89
2022/03/26 10:43:25;;;;;;;20.60;12.30;;;;;;;14.62;54.75;102165.06;4981715;28;20023;-88
2022/03/26 10:45:53;;;;;;;16.65;11.93;;;;;;;14.73;54.29;102157.06;5001830;28;20037;-89
2022/03/26 10:48:27;;;;;;;17.58;11.57;;;;;;;14.85;54.42;102157.09;4986499;28;20014;-89
2022/03/26 10:50:59;;;;;;;15.48;10.52;;;;;;;14.96;54.40;102157.03;5004678;28;20034;-89
2022/03/26 10:53:43;;;;;;;15.82;11.55;;;;;;;14.99;53.97;102141.09;4996990;28;20031;-89
2022/03/26 10:56:11;;;;;;;14.30;10.63;;;;;;;15.09;54.01;102151.66;4995782;28;20022;-89
2022/03/26 10:58:37;;;;;;;16.02;10.00;;;;;;;15.18;53.51;102146.34;4978883;28;20053;-89
2022/03/26 11:01:02;;;;;;;15.52;10.57;;;;;;;15.29;53.70;102153.34;4980304;28;20512;-89
2022/03/26 11:03:28;;;;;;;16.85;11.88;;;;;;;15.34;53.20;102146.25;4996964;28;20030;-89
2022/03/26 11:05:54;;;;;;;18.25;10.38;;;;;;;15.42;52.75;102147.09;4988016;28;20049;-89
2022/03/26 11:08:20;;;;;;;18.70;10.95;;;;;;;15.47;52.73;102137.28;4970401;28;20405;-89
2022/03/26 11:10:46;;;;;;;17.55;9.70;;;;;;;15.57;52.13;102130.13;4983911;28;20038;-88
2022/03/26 11:13:12;;;;;;;16.02;9.80;;;;;;;15.67;51.88;102133.59;4973898;28;20034;-89
2022/03/26 11:15:42;;;;;;;13.43;9.27;;;;;;;15.81;51.83;102137.97;4972982;28;20589;-89